Time;durP1;ratioP1;P1;durP2;ratioP2;P2;SDS_P1;SDS_P2;PMS_P1;PMS_P2;Temp;Humidity;BMP_temperature;BMP_pressure;BME280_temperature;BME280_humidity;BME280_pressure;Samples;Min_cycle;Max_cycle;Signal;HPM_P1;HPM_P2
2021/07/22 00:01:39;;;;;;;6.20;3.47;;;;;;;;;;4998420;28;20057;-57
2021/07/22 00:04:05;;;;;;;6.03;3.58;;;;;;;;;;4990911;28;20399;-56
2021/07/22 00:06:31;;;;;;;8.18;3.90;;;;;;;;;;4991431;28;20500;-58
2021/07/22 00:08:57;;;;;;;11.13;3.30;;;;;;;;;;4995444;28;20529;-57
2021/07/22 00:11:23;;;;;;;9.23;4.05;;;;;;;;;;4992063;28;20034;-56
2021/07/22 00:13:48;;;;;;;6.90;3.47;;;;;;;;;;4991238;28;21653;-55
2021/07/22 00:16:14;;;;;;;8.30;4.10;;;;;;;;;;5007541;28;20043;-58
2021/07/22 00:18:40;;;;;;;7.50;3.78;;;;;;;;;;5006181;28;20173;-56
2021/07/22 00:21:06;;;;;;;8.13;3.88;;;;;;;;;;5004534;28;20157;-58
2021/07/22 00:23:32;;;;;;;6.75;3.63;;;;;;;;;;4999778;28;20042;-56
2021/07/22 00:26:02;;;;;;;6.63;3.90;;;;;;;;;;5000783;28;20072;-57
2021/07/22 00:28:28;;;;;;;11.38;4.28;;;;;;;;;;5008860;28;20049;-56
2021/07/22 00:30:54;;;;;;;7.10;4.20;;;;;;;;;;5000181;28;20049;-54
2021/07/22 00:33:20;;;;;;;8.07;4.07;;;;;;;;;;4998791;28;20324;-57
2021/07/22 00:35:46;;;;;;;8.77;4.43;;;;;;;;;;5001197;28;20046;-57
2021/07/22 00:38:11;;;;;;;9.18;3.72;;;;;;;;;;5003254;28;20038;-57
2021/07/22 00:40:43;;;;;;;7.70;4.40;;;;;;;;;;5007913;28;20805;-58
2021/07/22 00:43:09;;;;;;;7.63;4.05;;;;;;;;;;5012709;28;20045;-56
2021/07/22 00:45:38;;;;;;;8.50;4.30;;;;;;;;;;5022129;28;20045;-58
2021/07/22 00:48:05;;;;;;;9.00;4.15;;;;;;;;;;5019213;28;20102;-58
2021/07/22 00:50:31;;;;;;;7.22;4.07;;;;;;;;;;5022846;28;20045;-59
2021/07/22 00:52:57;;;;;;;8.88;4.45;;;;;;;;;;5017240;28;20061;-57
2021/07/22 00:55:27;;;;;;;7.35;4.55;;;;;;;;;;5003712;28;20042;-53
2021/07/22 00:57:53;;;;;;;8.82;4.47;;;;;;;;;;4993217;28;20073;-57
2021/07/22 01:00:24;;;;;;;7.38;4.38;;;;;;;;;;5007043;28;20042;-56
2021/07/22 01:02:51;;;;;;;10.30;4.80;;;;;;;;;;4998149;28;20036;-55
2021/07/22 01:05:17;;;;;;;8.77;4.90;;;;;;;;;;5000029;28;20103;-57
2021/07/22 01:07:43;;;;;;;10.18;5.03;;;;;;;;;;4998485;28;20050;-54
2021/07/22 01:10:09;;;;;;;8.93;5.45;;;;;;;;;;4999256;28;20054;-55
2021/07/22 01:12:35;;;;;;;13.85;5.82;;;;;;;;;;5002420;28;20162;-57
2021/07/22 01:15:01;;;;;;;10.45;5.70;;;;;;;;;;4998429;28;20045;-57
2021/07/22 01:17:47;;;;;;;11.10;5.40;;;;;;;;;;4997510;28;20069;-55
2021/07/22 01:20:13;;;;;;;9.45;5.10;;;;;;;;;;5002603;28;20161;-56
2021/07/22 01:22:58;;;;;;;11.55;5.22;;;;;;;;;;4990464;28;20100;-56
2021/07/22 01:25:25;;;;;;;11.85;5.60;;;;;;;;;;4988061;28;20041;-58
2021/07/22 01:27:51;;;;;;;10.15;5.88;;;;;;;;;;4989780;28;20034;-55
2021/07/22 01:30:17;;;;;;;9.05;5.70;;;;;;;;;;4989625;28;20048;-55
2021/07/22 01:32:43;;;;;;;10.90;6.32;;;;;;;;;;4989682;28;20101;-56
2021/07/22 01:35:10;;;;;;;12.00;6.40;;;;;;;;;;4999222;28;20038;-57
2021/07/22 01:37:40;;;;;;;12.13;6.40;;;;;;;;;;5006527;28;20045;-57
2021/07/22 01:40:06;;;;;;;9.55;6.05;;;;;;;;;;4988059;28;20058;-56
2021/07/22 01:42:34;;;;;;;12.18;6.70;;;;;;;;;;4986994;28;20108;-55
2021/07/22 01:44:59;;;;;;;11.43;7.50;;;;;;;;;;4991427;28;20054;-56
2021/07/22 01:47:28;;;;;;;12.18;6.63;;;;;;;;;;4976968;28;20476;-56
2021/07/22 01:49:54;;;;;;;10.48;6.72;;;;;;;;;;4987782;28;20066;-54
2021/07/22 01:52:20;;;;;;;12.82;7.53;;;;;;;;;;4986358;28;20558;-55
2021/07/22 01:54:46;;;;;;;12.80;7.45;;;;;;;;;;4979538;28;20053;-56
2021/07/22 01:57:12;;;;;;;14.07;7.25;;;;;;;;;;4988702;28;20578;-54
2021/07/22 01:59:37;;;;;;;12.80;7.57;;;;;;;;;;4988976;28;20061;-55
2021/07/22 02:02:04;;;;;;;13.93;8.32;;;;;;;;;;5000123;28;20056;-57
2021/07/22 02:04:30;;;;;;;12.48;7.28;;;;;;;;;;4997666;28;20121;-56
2021/07/22 02:06:58;;;;;;;13.50;7.43;;;;;;;;;;4996866;28;21032;-56
2021/07/22 02:09:24;;;;;;;11.60;7.35;;;;;;;;;;4995132;28;20054;-56
2021/07/22 02:11:50;;;;;;;12.02;7.88;;;;;;;;;;4996442;28;20042;-56
2021/07/22 02:14:16;;;;;;;14.57;7.20;;;;;;;;;;4995072;28;20039;-55
2021/07/22 02:16:42;;;;;;;16.10;7.57;;;;;;;;;;4997373;28;20537;-55
2021/07/22 02:19:08;;;;;;;13.73;7.78;;;;;;;;;;4997008;28;20038;-56
2021/07/22 02:21:35;;;;;;;12.32;7.78;;;;;;;;;;4993359;28;20099;-57
2021/07/22 02:24:01;;;;;;;15.05;7.70;;;;;;;;;;5003748;28;20045;-54
2021/07/22 02:26:28;;;;;;;11.82;7.03;;;;;;;;;;4996718;28;20047;-57
2021/07/22 02:28:54;;;;;;;11.05;7.28;;;;;;;;;;4996868;28;20038;-57
2021/07/22 02:31:20;;;;;;;16.60;7.97;;;;;;;;;;4995677;28;20049;-58
2021/07/22 02:33:45;;;;;;;13.27;7.75;;;;;;;;;;4996222;28;20062;-58
2021/07/22 02:36:11;;;;;;;14.05;7.55;;;;;;;;;;4993249;28;20050;-56
2021/07/22 02:38:39;;;;;;;13.45;7.88;;;;;;;;;;4995179;28;20030;-61
2021/07/22 02:41:05;;;;;;;10.98;6.45;;;;;;;;;;4995619;28;20050;-57
2021/07/22 02:43:31;;;;;;;12.63;7.45;;;;;;;;;;5008931;28;20049;-58
2021/07/22 02:45:57;;;;;;;11.68;7.25;;;;;;;;;;4997561;28;20037;-59
2021/07/22 02:48:23;;;;;;;12.93;7.80;;;;;;;;;;4999528;28;20041;-58
2021/07/22 02:50:49;;;;;;;11.82;7.28;;;;;;;;;;5001206;28;20038;-59
2021/07/22 02:53:14;;;;;;;15.27;6.93;;;;;;;;;;5008854;28;20052;-58
2021/07/22 02:55:43;;;;;;;11.52;7.25;;;;;;;;;;5004091;28;20065;-60
2021/07/22 02:58:12;;;;;;;12.52;6.88;;;;;;;;;;5005446;28;20055;-59
2021/07/22 03:00:38;;;;;;;29.52;7.28;;;;;;;;;;5007613;28;20054;-59
2021/07/22 03:03:03;;;;;;;15.60;7.70;;;;;;;;;;4997127;28;20402;-58
2021/07/22 03:05:30;;;;;;;14.38;7.47;;;;;;;;;;5002215;28;20198;-58
2021/07/22 03:07:56;;;;;;;15.10;6.63;;;;;;;;;;4993776;28;20042;-58
2021/07/22 03:10:24;;;;;;;14.27;7.47;;;;;;;;;;5006829;28;20044;-57
2021/07/22 03:12:50;;;;;;;11.75;7.03;;;;;;;;;;5003546;28;20561;-58
2021/07/22 03:15:16;;;;;;;14.82;6.72;;;;;;;;;;5002112;28;20042;-56
2021/07/22 03:17:45;;;;;;;13.80;7.15;;;;;;;;;;5009626;28;20041;-56
2021/07/22 03:20:11;;;;;;;10.32;7.00;;;;;;;;;;5001741;28;20056;-56
2021/07/22 03:22:37;;;;;;;12.48;6.53;;;;;;;;;;5010597;28;20612;-57
2021/07/22 03:25:03;;;;;;;11.20;6.95;;;;;;;;;;4998617;28;20061;-58
2021/07/22 03:27:29;;;;;;;12.80;6.90;;;;;;;;;;5000749;28;20536;-57
2021/07/22 03:29:55;;;;;;;11.90;7.03;;;;;;;;;;5000060;28;20050;-58
2021/07/22 03:32:24;;;;;;;11.07;6.85;;;;;;;;;;5001911;28;20034;-60
2021/07/22 03:34:51;;;;;;;10.20;6.82;;;;;;;;;;5015747;28;20197;-57
2021/07/22 03:37:18;;;;;;;11.82;6.82;;;;;;;;;;5010917;28;20035;-60
2021/07/22 03:39:45;;;;;;;21.80;7.15;;;;;;;;;;4996814;28;20122;-62
2021/07/22 03:42:11;;;;;;;11.38;7.05;;;;;;;;;;4984989;28;20089;-59
2021/07/22 03:44:37;;;;;;;15.30;7.13;;;;;;;;;;4972234;28;20133;-58
2021/07/22 03:47:07;;;;;;;12.70;6.97;;;;;;;;;;5001667;28;20042;-58
2021/07/22 03:49:52;;;;;;;10.73;6.53;;;;;;;;;;5026992;28;20090;-55
2021/07/22 03:52:18;;;;;;;12.70;6.90;;;;;;;;;;5033862;28;20037;-59
2021/07/22 03:54:44;;;;;;;11.73;6.80;;;;;;;;;;5014871;28;20125;-58
2021/07/22 03:57:12;;;;;;;11.95;6.40;;;;;;;;;;5031366;28;20392;-58
2021/07/22 03:59:41;;;;;;;10.63;6.30;;;;;;;;;;4983314;28;20073;-60
2021/07/22 04:02:07;;;;;;;14.52;6.57;;;;;;;;;;4992559;28;20052;-60
2021/07/22 04:04:39;;;;;;;12.38;6.72;;;;;;;;;;5015709;28;20041;-59
2021/07/22 04:07:05;;;;;;;16.83;6.63;;;;;;;;;;5011422;28;20157;-60
2021/07/22 04:09:36;;;;;;;12.20;6.45;;;;;;;;;;5014071;28;20108;-59
2021/07/22 04:12:02;;;;;;;12.52;6.28;;;;;;;;;;5001804;28;20029;-61
2021/07/22 04:14:30;;;;;;;10.70;6.15;;;;;;;;;;5030798;28;20049;-60
2021/07/22 04:16:56;;;;;;;12.02;6.93;;;;;;;;;;5021739;28;20053;-61
2021/07/22 04:19:31;;;;;;;13.32;6.70;;;;;;;;;;4995998;28;20033;-57
2021/07/22 04:21:57;;;;;;;13.88;6.18;;;;;;;;;;5015592;28;20053;-59
2021/07/22 04:24:23;;;;;;;11.88;6.00;;;;;;;;;;5009213;28;20097;-57
2021/07/22 04:26:49;;;;;;;16.50;6.03;;;;;;;;;;5003263;28;20125;-57
2021/07/22 04:29:15;;;;;;;10.65;6.18;;;;;;;;;;4993435;28;20045;-57
2021/07/22 04:31:41;;;;;;;16.73;6.40;;;;;;;;;;4997403;28;20037;-61
2021/07/22 04:34:06;;;;;;;14.18;6.75;;;;;;;;;;4989202;28;20050;-58
2021/07/22 04:36:32;;;;;;;10.77;6.57;;;;;;;;;;4988407;28;20097;-58
2021/07/22 04:38:58;;;;;;;11.65;6.40;;;;;;;;;;4988856;28;20087;-58
2021/07/22 04:41:24;;;;;;;11.23;6.18;;;;;;;;;;4993817;28;20046;-59
2021/07/22 04:43:50;;;;;;;10.40;5.82;;;;;;;;;;5007409;28;20039;-57
2021/07/22 04:46:15;;;;;;;12.43;5.95;;;;;;;;;;5016028;28;20034;-58
2021/07/22 04:48:41;;;;;;;8.90;5.55;;;;;;;;;;5014022;28;20263;-58
2021/07/22 04:51:07;;;;;;;12.48;5.20;;;;;;;;;;5005721;28;20383;-57
2021/07/22 04:53:36;;;;;;;10.40;5.72;;;;;;;;;;4996245;28;20052;-56
2021/07/22 04:56:02;;;;;;;14.93;6.43;;;;;;;;;;4997918;28;20395;-58
2021/07/22 04:58:28;;;;;;;8.82;5.50;;;;;;;;;;4993506;28;20042;-59
2021/07/22 05:00:54;;;;;;;11.07;5.82;;;;;;;;;;4996035;28;20058;-57
2021/07/22 05:03:20;;;;;;;13.50;5.70;;;;;;;;;;4994901;28;20042;-57
2021/07/22 05:05:45;;;;;;;12.73;5.88;;;;;;;;;;4994125;28;21986;-57
2021/07/22 05:08:11;;;;;;;11.23;5.40;;;;;;;;;;4994645;28;20042;-58
2021/07/22 05:10:37;;;;;;;9.30;5.63;;;;;;;;;;4995129;28;20447;-58
2021/07/22 05:13:06;;;;;;;9.13;5.13;;;;;;;;;;4991915;28;20047;-58
2021/07/22 05:15:32;;;;;;;10.32;5.20;;;;;;;;;;4991459;28;20230;-57
2021/07/22 05:17:58;;;;;;;8.60;4.93;;;;;;;;;;4995286;28;20124;-57
2021/07/22 05:20:24;;;;;;;10.20;5.47;;;;;;;;;;4993366;28;20050;-56
2021/07/22 05:22:50;;;;;;;10.15;5.25;;;;;;;;;;4992273;28;20038;-55
2021/07/22 05:25:15;;;;;;;10.10;5.70;;;;;;;;;;4993161;28;20037;-57
2021/07/22 05:27:41;;;;;;;14.90;6.82;;;;;;;;;;4991902;28;20101;-58
2021/07/22 05:30:07;;;;;;;12.63;6.78;;;;;;;;;;4998897;28;20041;-58
2021/07/22 05:32:33;;;;;;;13.05;6.40;;;;;;;;;;5003375;28;20042;-58
2021/07/22 05:34:59;;;;;;;10.32;6.85;;;;;;;;;;5002145;28;20075;-57
2021/07/22 05:37:25;;;;;;;11.02;6.50;;;;;;;;;;4999653;28;20042;-57
2021/07/22 05:39:51;;;;;;;13.43;6.82;;;;;;;;;;5000659;28;20139;-56
2021/07/22 05:42:17;;;;;;;11.60;6.18;;;;;;;;;;4998757;28;20113;-53
2021/07/22 05:44:43;;;;;;;15.77;6.13;;;;;;;;;;4999362;28;20034;-56
2021/07/22 05:47:08;;;;;;;12.10;6.90;;;;;;;;;;4999734;28;20049;-56
2021/07/22 05:49:34;;;;;;;14.93;9.25;;;;;;;;;;4996378;28;20042;-59
2021/07/22 05:52:01;;;;;;;14.27;9.68;;;;;;;;;;4995168;28;20042;-56
2021/07/22 05:54:27;;;;;;;19.38;10.23;;;;;;;;;;4995820;28;20045;-57
2021/07/22 05:56:52;;;;;;;17.60;11.60;;;;;;;;;;4991489;28;20041;-53
2021/07/22 05:59:18;;;;;;;17.70;11.98;;;;;;;;;;4991196;28;20042;-53
2021/07/22 06:01:44;;;;;;;20.88;13.05;;;;;;;;;;5003610;28;20038;-56
2021/07/22 06:04:10;;;;;;;20.10;13.55;;;;;;;;;;4990770;28;20404;-53
2021/07/22 06:06:36;;;;;;;21.83;14.50;;;;;;;;;;4992416;28;20084;-54
2021/07/22 06:09:02;;;;;;;23.70;16.58;;;;;;;;;;4991751;28;20454;-53
2021/07/22 06:11:28;;;;;;;23.02;15.60;;;;;;;;;;4992405;28;20668;-55
2021/07/22 06:13:54;;;;;;;29.10;16.85;;;;;;;;;;4990894;28;20050;-55
2021/07/22 06:16:20;;;;;;;24.27;16.55;;;;;;;;;;4991379;28;20080;-55
2021/07/22 06:18:46;;;;;;;28.10;18.13;;;;;;;;;;4990505;28;20087;-54
2021/07/22 06:21:15;;;;;;;24.13;17.05;;;;;;;;;;4991484;28;20077;-55
2021/07/22 06:23:42;;;;;;;26.15;18.35;;;;;;;;;;4990457;28;20041;-54
2021/07/22 06:26:07;;;;;;;26.25;17.80;;;;;;;;;;4991110;28;20123;-54
2021/07/22 06:28:33;;;;;;;28.52;18.98;;;;;;;;;;4989556;28;20042;-54
2021/07/22 06:30:59;;;;;;;28.33;17.35;;;;;;;;;;4991036;28;20038;-54
2021/07/22 06:33:25;;;;;;;29.58;19.63;;;;;;;;;;4991031;28;20741;-51
2021/07/22 06:35:51;;;;;;;27.13;18.83;;;;;;;;;;4989404;28;20503;-56
2021/07/22 06:38:17;;;;;;;28.70;19.88;;;;;;;;;;4989604;28;22615;-55
2021/07/22 06:40:43;;;;;;;29.80;19.67;;;;;;;;;;4990049;28;20056;-55
2021/07/22 06:43:09;;;;;;;28.50;20.45;;;;;;;;;;4990105;28;20599;-55
2021/07/22 06:45:35;;;;;;;28.25;19.63;;;;;;;;;;4988960;28;20045;-54
2021/07/22 06:48:02;;;;;;;27.70;20.05;;;;;;;;;;4990034;28;20085;-55
2021/07/22 06:50:28;;;;;;;32.63;20.20;;;;;;;;;;4988459;28;20042;-51
2021/07/22 06:52:54;;;;;;;28.67;19.98;;;;;;;;;;4991753;28;20053;-55
2021/07/22 06:55:20;;;;;;;33.20;20.35;;;;;;;;;;4990691;28;20033;-55
2021/07/22 06:57:48;;;;;;;32.60;20.63;;;;;;;;;;4989954;28;20054;-54
2021/07/22 07:00:14;;;;;;;32.30;21.23;;;;;;;;;;4989916;28;20060;-54
2021/07/22 07:02:40;;;;;;;31.73;20.23;;;;;;;;;;4988212;28;20052;-54
2021/07/22 07:05:06;;;;;;;34.00;21.25;;;;;;;;;;4991223;28;20038;-55
2021/07/22 07:07:32;;;;;;;34.15;21.40;;;;;;;;;;4988876;28;20518;-55
2021/07/22 07:09:57;;;;;;;27.85;19.90;;;;;;;;;;4990653;28;20037;-54
2021/07/22 07:12:23;;;;;;;30.48;20.48;;;;;;;;;;4990699;28;20121;-56
2021/07/22 07:14:49;;;;;;;35.15;20.83;;;;;;;;;;4990121;28;20042;-56
2021/07/22 07:17:15;;;;;;;33.67;20.23;;;;;;;;;;4988107;28;20427;-54
2021/07/22 07:19:41;;;;;;;28.52;19.23;;;;;;;;;;4988215;28;20046;-57
2021/07/22 07:22:07;;;;;;;30.23;19.23;;;;;;;;;;4990435;28;20053;-55
2021/07/22 07:24:32;;;;;;;30.75;20.33;;;;;;;;;;4987965;28;20041;-54
2021/07/22 07:26:58;;;;;;;27.88;19.30;;;;;;;;;;4990138;28;20128;-56
2021/07/22 07:29:24;;;;;;;28.27;19.13;;;;;;;;;;4988360;28;20038;-56
2021/07/22 07:31:50;;;;;;;30.05;18.02;;;;;;;;;;4992212;28;20128;-54
2021/07/22 07:34:16;;;;;;;29.13;19.80;;;;;;;;;;4991493;28;20088;-54
2021/07/22 07:36:44;;;;;;;28.98;18.38;;;;;;;;;;4990343;28;20067;-54
2021/07/22 07:39:11;;;;;;;31.10;19.17;;;;;;;;;;5004326;28;20050;-55
2021/07/22 07:41:37;;;;;;;28.60;18.40;;;;;;;;;;4992030;28;20109;-56
2021/07/22 07:44:03;;;;;;;27.38;18.58;;;;;;;;;;4993632;28;20045;-55
2021/07/22 07:46:28;;;;;;;30.77;19.05;;;;;;;;;;4994661;28;20384;-55
2021/07/22 07:48:54;;;;;;;31.10;19.85;;;;;;;;;;5006901;28;20042;-56
2021/07/22 07:51:20;;;;;;;30.65;19.40;;;;;;;;;;5018446;28;20034;-56
2021/07/22 07:53:46;;;;;;;30.95;19.30;;;;;;;;;;5017236;28;20097;-56
2021/07/22 07:56:11;;;;;;;27.98;18.55;;;;;;;;;;5014828;28;20042;-52
2021/07/22 07:58:37;;;;;;;35.63;19.92;;;;;;;;;;5002589;28;20050;-55
2021/07/22 08:01:03;;;;;;;28.30;19.27;;;;;;;;;;4999400;28;20860;-55
2021/07/22 08:03:29;;;;;;;32.20;20.73;;;;;;;;;;4996165;28;20061;-53
2021/07/22 08:05:55;;;;;;;29.33;20.13;;;;;;;;;;4992805;28;20064;-55
2021/07/22 08:08:22;;;;;;;31.13;19.77;;;;;;;;;;4990534;28;20546;-51
2021/07/22 08:10:47;;;;;;;32.38;20.30;;;;;;;;;;4990441;28;20053;-57
2021/07/22 08:13:13;;;;;;;32.65;21.20;;;;;;;;;;4991494;28;20050;-58
2021/07/22 08:15:43;;;;;;;32.53;20.50;;;;;;;;;;4988902;28;20366;-57
2021/07/22 08:18:09;;;;;;;31.83;20.63;;;;;;;;;;4990076;28;20042;-56
2021/07/22 08:20:35;;;;;;;31.13;20.35;;;;;;;;;;4991961;28;20108;-57
2021/07/22 08:23:01;;;;;;;33.00;20.58;;;;;;;;;;4988847;28;20038;-57
2021/07/22 08:25:27;;;;;;;33.70;20.88;;;;;;;;;;4990346;28;20478;-56
2021/07/22 08:27:52;;;;;;;37.42;21.33;;;;;;;;;;4995871;28;20042;-58
2021/07/22 08:30:18;;;;;;;36.30;23.27;;;;;;;;;;4996703;28;20103;-57
2021/07/22 08:32:44;;;;;;;33.92;24.08;;;;;;;;;;4996538;28;20060;-57
2021/07/22 08:35:10;;;;;;;37.97;23.65;;;;;;;;;;4994208;28;20112;-57
2021/07/22 08:37:36;;;;;;;38.63;23.88;;;;;;;;;;4990805;28;20046;-56
2021/07/22 08:40:04;;;;;;;38.13;24.65;;;;;;;;;;4977572;28;22122;-56
2021/07/22 08:42:38;;;;;;;40.95;24.55;;;;;;;;;;4994218;28;20057;-57
2021/07/22 08:45:04;;;;;;;39.35;24.52;;;;;;;;;;4993597;28;20042;-57
2021/07/22 08:47:30;;;;;;;39.25;24.23;;;;;;;;;;4992443;28;20062;-56
2021/07/22 08:49:56;;;;;;;36.25;22.98;;;;;;;;;;4993584;28;20058;-55
2021/07/22 08:52:22;;;;;;;32.55;22.55;;;;;;;;;;4993634;28;20042;-57
2021/07/22 08:54:48;;;;;;;43.38;23.33;;;;;;;;;;4994223;28;20137;-57
2021/07/22 08:57:15;;;;;;;43.97;23.83;;;;;;;;;;4992824;28;20117;-56
2021/07/22 08:59:41;;;;;;;37.38;24.25;;;;;;;;;;4992311;28;20031;-54
2021/07/22 09:02:07;;;;;;;39.70;23.48;;;;;;;;;;4995355;28;20065;-57
2021/07/22 09:04:49;;;;;;;35.90;22.95;;;;;;;;;;4991747;28;20399;-56
2021/07/22 09:07:16;;;;;;;41.53;24.20;;;;;;;;;;4991759;28;20641;-56
2021/07/22 09:09:41;;;;;;;40.35;24.50;;;;;;;;;;4994894;28;20042;-53
2021/07/22 09:12:07;;;;;;;40.17;25.20;;;;;;;;;;4994597;28;20127;-56
2021/07/22 09:14:35;;;;;;;40.50;25.10;;;;;;;;;;4992550;28;20034;-55
2021/07/22 09:17:01;;;;;;;39.88;24.48;;;;;;;;;;4990356;28;20034;-56
2021/07/22 09:19:40;;;;;;;45.67;24.83;;;;;;;;;;4991983;28;20077;-57
2021/07/22 09:22:07;;;;;;;39.22;23.90;;;;;;;;;;4991097;28;20050;-56
2021/07/22 09:24:46;;;;;;;42.15;25.45;;;;;;;;;;4989788;28;20039;-56
2021/07/22 09:27:30;;;;;;;40.78;24.58;;;;;;;;;;4989661;28;20043;-57
2021/07/22 09:29:57;;;;;;;42.30;24.98;;;;;;;;;;4990333;28;20041;-56
2021/07/22 09:32:28;;;;;;;41.25;24.35;;;;;;;;;;4991165;28;20112;-57
2021/07/22 09:35:03;;;;;;;40.47;25.20;;;;;;;;;;4992710;28;20038;-56
2021/07/22 09:37:29;;;;;;;41.58;25.17;;;;;;;;;;4991584;28;20089;-57
2021/07/22 09:39:54;;;;;;;41.63;25.35;;;;;;;;;;4992989;28;20050;-57
2021/07/22 09:42:20;;;;;;;47.97;26.33;;;;;;;;;;4990566;28;20175;-56
2021/07/22 09:44:46;;;;;;;41.47;25.13;;;;;;;;;;4991947;28;20048;-56
2021/07/22 09:47:12;;;;;;;37.65;24.58;;;;;;;;;;4991147;28;20045;-57
2021/07/22 09:49:42;;;;;;;41.00;25.63;;;;;;;;;;4992840;28;20062;-53
2021/07/22 09:52:21;;;;;;;42.20;25.52;;;;;;;;;;4992865;28;20033;-56
2021/07/22 09:54:47;;;;;;;43.47;26.23;;;;;;;;;;4990245;28;20042;-57
2021/07/22 09:57:14;;;;;;;39.85;24.60;;;;;;;;;;4991577;28;20042;-56
2021/07/22 09:59:41;;;;;;;42.40;25.55;;;;;;;;;;4990565;28;20042;-56
2021/07/22 10:02:11;;;;;;;40.00;24.85;;;;;;;;;;4991166;28;20057;-57
2021/07/22 10:04:37;;;;;;;42.95;26.02;;;;;;;;;;4991584;28;20037;-58
2021/07/22 10:07:03;;;;;;;45.20;26.80;;;;;;;;;;4991464;28;20038;-57
2021/07/22 10:09:33;;;;;;;42.83;25.17;;;;;;;;;;4993004;28;20046;-58
2021/07/22 10:11:59;;;;;;;41.70;25.42;;;;;;;;;;4992370;28;20050;-57
2021/07/22 10:14:26;;;;;;;39.47;24.70;;;;;;;;;;4990384;28;20044;-54
2021/07/22 10:16:54;;;;;;;42.85;26.17;;;;;;;;;;4989412;28;20180;-56
2021/07/22 10:19:20;;;;;;;47.78;27.00;;;;;;;;;;4991340;28;20041;-57
2021/07/22 10:21:47;;;;;;;42.75;26.40;;;;;;;;;;4991284;28;20058;-57
2021/07/22 10:24:13;;;;;;;43.25;26.98;;;;;;;;;;4992028;28;20046;-57
2021/07/22 10:26:40;;;;;;;42.63;25.90;;;;;;;;;;4987996;28;20052;-57
2021/07/22 10:29:06;;;;;;;44.83;26.70;;;;;;;;;;4992250;28;20096;-57
2021/07/22 10:31:44;;;;;;;49.30;29.90;;;;;;;;;;4991269;28;20171;-58
2021/07/22 10:34:11;;;;;;;46.05;28.88;;;;;;;;;;4991447;28;20411;-56
2021/07/22 10:36:38;;;;;;;43.92;28.60;;;;;;;;;;4989497;28;20109;-57
2021/07/22 10:39:04;;;;;;;46.42;28.00;;;;;;;;;;4989631;28;20049;-56
2021/07/22 10:41:40;;;;;;;48.67;27.90;;;;;;;;;;4989716;28;20053;-57
2021/07/22 10:44:07;;;;;;;49.90;28.40;;;;;;;;;;4991321;28;20057;-57
2021/07/22 10:46:55;;;;;;;49.90;28.75;;;;;;;;;;4989779;28;20073;-55
2021/07/22 10:49:36;;;;;;;44.95;27.42;;;;;;;;;;5003574;28;20042;-57
2021/07/22 10:52:01;;;;;;;51.65;32.30;;;;;;;;;;4991047;28;20045;-57
2021/07/22 10:54:39;;;;;;;73.63;42.25;;;;;;;;;;4991096;28;20045;-54
2021/07/22 10:57:05;;;;;;;69.90;45.85;;;;;;;;;;4990895;28;20046;-54
2021/07/22 11:00:00;;;;;;;70.47;44.47;;;;;;;;;;4990901;28;20050;-56
2021/07/22 11:02:42;;;;;;;67.45;41.63;;;;;;;;;;4985076;28;20053;-56
2021/07/22 11:05:09;;;;;;;74.00;45.45;;;;;;;;;;4987550;28;20089;-55
2021/07/22 11:07:36;;;;;;;63.88;38.45;;;;;;;;;;4990000;28;20108;-52
2021/07/22 11:10:02;;;;;;;54.10;36.08;;;;;;;;;;4993291;28;20049;-56
2021/07/22 11:12:47;;;;;;;62.97;37.38;;;;;;;;;;4988790;28;20078;-53
2021/07/22 11:15:36;;;;;;;51.13;31.80;;;;;;;;;;4989240;28;20042;-54
2021/07/22 11:18:21;;;;;;;44.33;27.88;;;;;;;;;;4982996;28;20034;-53
2021/07/22 11:20:47;;;;;;;41.20;25.33;;;;;;;;;;4988880;28;20539;-56
2021/07/22 11:23:14;;;;;;;40.95;23.83;;;;;;;;;;4988829;28;20038;-55
2021/07/22 11:25:45;;;;;;;38.83;24.17;;;;;;;;;;4987730;28;20049;-56
2021/07/22 11:28:11;;;;;;;40.63;23.00;;;;;;;;;;4987788;28;20038;-56
2021/07/22 11:30:37;;;;;;;32.28;20.88;;;;;;;;;;4989533;28;20042;-56
2021/07/22 11:33:16;;;;;;;26.77;18.63;;;;;;;;;;4989212;28;20384;-53
2021/07/22 11:35:53;;;;;;;31.95;19.02;;;;;;;;;;4984866;28;20045;-55
2021/07/22 11:38:19;;;;;;;32.65;19.05;;;;;;;;;;4981199;28;20118;-55
2021/07/22 11:40:45;;;;;;;32.10;18.35;;;;;;;;;;4982883;28;20139;-55
2021/07/22 11:43:10;;;;;;;32.90;19.65;;;;;;;;;;4982737;28;20172;-54
2021/07/22 11:45:44;;;;;;;32.47;18.42;;;;;;;;;;4981744;28;20049;-57
2021/07/22 11:48:09;;;;;;;;;;;;;;;;;;4982373;28;20052;-56
2021/07/22 11:50:35;;;;;;;26.40;16.45;;;;;;;;;;4982362;28;19918;-55
2021/07/22 11:53:19;;;;;;;28.23;16.48;;;;;;;;;;4982880;28;20674;-56
2021/07/22 11:55:45;;;;;;;28.27;16.42;;;;;;;;;;4980701;28;20045;-57
2021/07/22 11:58:14;;;;;;;26.58;16.67;;;;;;;;;;4982843;28;20050;-53
2021/07/22 12:00:40;;;;;;;21.70;12.43;;;;;;;;;;4985441;28;20045;-52
2021/07/22 12:03:06;;;;;;;25.92;15.00;;;;;;;;;;4985351;28;20322;-54
2021/07/22 12:05:32;;;;;;;27.65;15.25;;;;;;;;;;4986948;28;20150;-56
2021/07/22 12:08:13;;;;;;;26.83;15.05;;;;;;;;;;4983695;28;20050;-56
2021/07/22 12:10:38;;;;;;;26.15;15.43;;;;;;;;;;4984666;28;20138;-54
2021/07/22 12:13:08;;;;;;;23.92;13.55;;;;;;;;;;4985947;28;20430;-54
2021/07/22 12:15:34;;;;;;;16.95;10.82;;;;;;;;;;4985785;28;20065;-53
2021/07/22 12:18:00;;;;;;;19.77;12.55;;;;;;;;;;4986048;28;20511;-57
2021/07/22 12:20:26;;;;;;;27.42;14.85;;;;;;;;;;4986992;28;20045;-56
2021/07/22 12:22:52;;;;;;;26.35;14.10;;;;;;;;;;4986563;28;20042;-56
2021/07/22 12:25:18;;;;;;;22.35;13.40;;;;;;;;;;4986042;28;20043;-56
2021/07/22 12:27:49;;;;;;;12.65;7.78;;;;;;;;;;4985573;28;20483;-56
2021/07/22 12:30:16;;;;;;;22.73;13.35;;;;;;;;;;4987094;28;20458;-56
2021/07/22 12:32:48;;;;;;;24.27;13.55;;;;;;;;;;4985216;28;20042;-57
2021/07/22 12:35:32;;;;;;;24.25;13.98;;;;;;;;;;4985446;28;20081;-56
2021/07/22 12:37:58;;;;;;;21.90;13.13;;;;;;;;;;4989457;28;20529;-55
2021/07/22 12:40:33;;;;;;;23.35;12.82;;;;;;;;;;4991141;28;20049;-56
2021/07/22 12:43:00;;;;;;;21.27;11.30;;;;;;;;;;4991756;28;20031;-57
2021/07/22 12:45:26;;;;;;;25.63;13.32;;;;;;;;;;4993295;28;20063;-56
2021/07/22 12:47:51;;;;;;;23.17;13.65;;;;;;;;;;4993129;28;20037;-57
2021/07/22 12:50:28;;;;;;;24.35;13.30;;;;;;;;;;4992025;28;20042;-57
2021/07/22 12:52:54;;;;;;;22.38;12.30;;;;;;;;;;4994615;28;22008;-57
2021/07/22 12:55:30;;;;;;;22.35;12.90;;;;;;;;;;4991022;28;20034;-57
2021/07/22 12:57:56;;;;;;;25.00;13.48;;;;;;;;;;4984949;28;20411;-57
2021/07/22 13:00:22;;;;;;;20.02;12.20;;;;;;;;;;4985049;28;20042;-57
2021/07/22 13:02:52;;;;;;;19.80;11.93;;;;;;;;;;4986184;28;20525;-55
2021/07/22 13:05:18;;;;;;;19.17;12.15;;;;;;;;;;4985036;28;20029;-56
2021/07/22 13:07:43;;;;;;;19.95;11.45;;;;;;;;;;4990430;28;20794;-56
2021/07/22 13:10:09;;;;;;;22.60;12.77;;;;;;;;;;4992563;28;20530;-56
2021/07/22 13:12:35;;;;;;;18.80;11.63;;;;;;;;;;4987600;28;20147;-56
2021/07/22 13:15:01;;;;;;;21.13;12.02;;;;;;;;;;4986058;28;20483;-57
2021/07/22 13:17:27;;;;;;;18.83;9.57;;;;;;;;;;4984628;28;20220;-54
2021/07/22 13:19:53;;;;;;;18.45;11.80;;;;;;;;;;4987641;28;20794;-56
2021/07/22 13:22:19;;;;;;;20.77;11.48;;;;;;;;;;4987509;28;20104;-55
2021/07/22 13:24:49;;;;;;;18.38;10.88;;;;;;;;;;4988705;28;20459;-57
2021/07/22 13:27:16;;;;;;;17.90;10.80;;;;;;;;;;4986506;28;20519;-56
2021/07/22 13:29:41;;;;;;;19.02;11.70;;;;;;;;;;4986126;28;20058;-57
2021/07/22 13:32:08;;;;;;;20.42;11.30;;;;;;;;;;4985412;28;20050;-57
2021/07/22 13:34:34;;;;;;;20.17;10.88;;;;;;;;;;4984731;28;20042;-55
2021/07/22 13:37:00;;;;;;;20.73;11.18;;;;;;;;;;4984807;28;20112;-56
2021/07/22 13:39:26;;;;;;;21.27;11.05;;;;;;;;;;4984459;28;20121;-56
2021/07/22 13:41:51;;;;;;;20.27;11.38;;;;;;;;;;4983715;28;20051;-56
2021/07/22 13:44:17;;;;;;;19.23;10.48;;;;;;;;;;4985658;28;20038;-54
2021/07/22 13:46:43;;;;;;;19.88;10.68;;;;;;;;;;4983749;28;20046;-55
2021/07/22 13:49:09;;;;;;;17.88;9.98;;;;;;;;;;4983931;28;20041;-55
2021/07/22 13:51:35;;;;;;;18.00;10.20;;;;;;;;;;4984399;28;20046;-54
2021/07/22 13:54:00;;;;;;;19.05;11.38;;;;;;;;;;4985257;28;20398;-55
2021/07/22 13:56:26;;;;;;;19.40;10.40;;;;;;;;;;4982387;28;20513;-55
2021/07/22 13:58:52;;;;;;;18.38;11.07;;;;;;;;;;4985632;28;20050;-57
2021/07/22 14:01:18;;;;;;;16.95;10.05;;;;;;;;;;4984216;28;20042;-57
2021/07/22 14:03:43;;;;;;;17.65;10.05;;;;;;;;;;4984255;28;20065;-56
2021/07/22 14:06:09;;;;;;;19.65;10.95;;;;;;;;;;4983724;28;20100;-56
2021/07/22 14:08:35;;;;;;;20.90;11.57;;;;;;;;;;4983195;28;20065;-53
2021/07/22 14:11:01;;;;;;;16.70;10.20;;;;;;;;;;4984045;28;20040;-57
2021/07/22 14:13:26;;;;;;;16.70;9.65;;;;;;;;;;4983898;28;20090;-57
2021/07/22 14:15:52;;;;;;;18.25;10.52;;;;;;;;;;4983780;28;20140;-55
2021/07/22 14:18:18;;;;;;;19.77;10.82;;;;;;;;;;4983016;28;20104;-56
2021/07/22 14:20:44;;;;;;;20.20;11.70;;;;;;;;;;4984021;28;20054;-56
2021/07/22 14:23:10;;;;;;;21.00;11.30;;;;;;;;;;4983923;28;20364;-55
2021/07/22 14:25:36;;;;;;;21.42;12.55;;;;;;;;;;4982962;28;20061;-56